createdAt,value
2024-03-28T00:01:02.871Z,10.79
2024-03-28T00:03:29.573Z,10.80
2024-03-28T00:05:59.871Z,10.81
2024-03-28T00:08:27.404Z,10.82
2024-03-28T00:10:54.686Z,10.82
2024-03-28T00:13:22.133Z,10.82
2024-03-28T00:16:03.467Z,10.80
2024-03-28T00:18:31.169Z,10.78
2024-03-28T00:21:03.047Z,10.77
2024-03-28T00:23:30.273Z,10.76
2024-03-28T00:25:59.241Z,10.74
2024-03-28T00:28:26.065Z,10.73
2024-03-28T00:30:53.229Z,10.70
2024-03-28T00:33:20.933Z,10.68
2024-03-28T00:35:49.431Z,10.66
2024-03-28T00:38:17.549Z,10.66
2024-03-28T00:40:55.127Z,10.64
2024-03-28T00:43:23.448Z,10.63
2024-03-28T00:45:50.876Z,10.62
2024-03-28T00:48:19.010Z,10.62
2024-03-28T00:50:53.123Z,10.61
2024-03-28T00:53:20.096Z,10.47
2024-03-28T00:55:48.359Z,10.30
2024-03-28T00:58:15.526Z,10.18
2024-03-28T01:00:43.624Z,10.13
2024-03-28T01:03:10.785Z,10.05
2024-03-28T01:05:37.795Z,9.95
2024-03-28T01:08:05.021Z,9.87
2024-03-28T01:10:32.076Z,9.84
2024-03-28T01:12:58.697Z,9.83
2024-03-28T01:15:25.535Z,9.79
2024-03-28T01:17:52.118Z,9.63
2024-03-28T01:20:18.788Z,9.50
2024-03-28T01:22:45.464Z,9.42
2024-03-28T01:25:12.040Z,9.42
2024-03-28T01:27:41.942Z,9.45
2024-03-28T01:30:09.394Z,9.47
2024-03-28T01:32:36.668Z,9.50
2024-03-28T01:35:03.877Z,9.52
2024-03-28T01:37:30.434Z,9.54
2024-03-28T01:39:57.084Z,9.58
2024-03-28T01:42:23.973Z,9.60
2024-03-28T01:44:50.507Z,9.60
2024-03-28T01:47:35.487Z,9.60
2024-03-28T01:50:04.876Z,9.61
2024-03-28T01:52:31.841Z,9.61
2024-03-28T01:54:58.891Z,9.62
2024-03-28T01:57:26.303Z,9.62
2024-03-28T01:59:53.266Z,9.63
2024-03-28T02:02:21.729Z,9.65
2024-03-28T02:04:48.384Z,9.64
2024-03-28T02:07:14.916Z,9.63
2024-03-28T02:09:41.654Z,9.62
2024-03-28T02:12:10.504Z,9.60
2024-03-28T02:14:38.941Z,9.59
2024-03-28T02:17:06.915Z,9.59
2024-03-28T02:19:35.469Z,9.57
2024-03-28T02:22:02.959Z,9.57
2024-03-28T02:24:30.584Z,9.59
2024-03-28T02:26:57.555Z,9.62
2024-03-28T02:29:24.981Z,9.64
2024-03-28T02:31:51.530Z,9.66
2024-03-28T02:34:18.410Z,9.67
2024-03-28T02:36:45.108Z,9.66
2024-03-28T02:39:11.985Z,9.64
2024-03-28T02:41:38.654Z,9.62
2024-03-28T02:44:05.486Z,9.62
2024-03-28T02:46:32.169Z,9.61
2024-03-28T02:48:58.768Z,9.58
2024-03-28T02:51:25.508Z,9.56
2024-03-28T02:53:52.073Z,9.53
2024-03-28T02:56:18.620Z,9.50
2024-03-28T02:58:45.217Z,9.48
2024-03-28T03:01:11.747Z,9.46
2024-03-28T03:03:38.345Z,9.43
2024-03-28T03:06:04.998Z,9.41
2024-03-28T03:08:31.595Z,9.40
2024-03-28T03:10:58.145Z,9.40
2024-03-28T03:13:24.697Z,9.38
2024-03-28T03:15:58.680Z,9.36
2024-03-28T03:18:27.486Z,9.34
2024-03-28T03:21:05.586Z,9.32
2024-03-28T03:23:49.513Z,9.30
2024-03-28T03:26:25.962Z,9.27
2024-03-28T03:29:11.065Z,9.25
2024-03-28T03:31:56.209Z,9.25
2024-03-28T03:34:37.987Z,9.24
2024-03-28T03:37:11.272Z,9.24
2024-03-28T03:39:38.398Z,9.25
2024-03-28T03:42:05.111Z,9.23
2024-03-28T03:44:31.767Z,9.21
2024-03-28T03:46:58.299Z,9.20
2024-03-28T03:49:24.982Z,9.19
2024-03-28T03:51:51.820Z,9.16
2024-03-28T03:54:18.444Z,9.12
2024-03-28T03:56:45.039Z,9.11
2024-03-28T03:59:11.598Z,9.09
2024-03-28T04:01:38.427Z,9.09
2024-03-28T04:04:05.429Z,9.08
2024-03-28T04:06:31.992Z,9.06
2024-03-28T04:08:58.621Z,9.06
2024-03-28T04:11:25.504Z,9.06
2024-03-28T04:13:52.080Z,9.05
2024-03-28T04:16:19.143Z,9.06
2024-03-28T04:18:45.771Z,9.08
2024-03-28T04:21:12.414Z,9.11
2024-03-28T04:23:38.980Z,9.10
2024-03-28T04:26:05.615Z,9.07
2024-03-28T04:28:32.149Z,9.03
2024-03-28T04:30:58.773Z,8.92
2024-03-28T04:33:25.328Z,8.89
2024-03-28T04:35:51.958Z,8.89
2024-03-28T04:38:18.483Z,8.90
2024-03-28T04:40:45.043Z,8.90
2024-03-28T04:43:12.965Z,8.88
2024-03-28T04:45:39.570Z,8.77
2024-03-28T04:48:06.552Z,8.62
2024-03-28T04:50:33.149Z,8.45
2024-03-28T04:53:00.019Z,8.34
2024-03-28T04:55:27.998Z,8.33
2024-03-28T04:57:55.103Z,8.34
2024-03-28T05:00:21.636Z,8.35
2024-03-28T05:02:48.219Z,8.37
2024-03-28T05:05:14.811Z,8.39
2024-03-28T05:07:41.430Z,8.41
2024-03-28T05:10:08.578Z,8.45
2024-03-28T05:12:35.304Z,8.44
2024-03-28T05:15:02.649Z,8.45
2024-03-28T05:17:29.253Z,8.49
2024-03-28T05:19:55.883Z,8.53
2024-03-28T05:22:22.510Z,8.58
2024-03-28T05:24:49.110Z,8.64
2024-03-28T05:27:15.685Z,8.61
2024-03-28T05:29:42.877Z,8.59
2024-03-28T05:32:09.579Z,8.64
2024-03-28T05:34:36.477Z,8.70
2024-03-28T05:37:03.267Z,8.79
2024-03-28T05:39:30.862Z,8.86
2024-03-28T05:41:57.437Z,8.95
2024-03-28T05:44:24.608Z,9.07
2024-03-28T05:46:51.155Z,9.18
2024-03-28T05:49:17.756Z,9.28
2024-03-28T05:51:44.417Z,9.38
2024-03-28T05:54:11.033Z,9.46
2024-03-28T05:56:39.324Z,9.55
2024-03-28T05:59:07.930Z,9.61
2024-03-28T06:01:34.508Z,9.66
2024-03-28T06:04:01.122Z,9.69
2024-03-28T06:06:27.718Z,9.71
2024-03-28T06:08:54.646Z,9.72
2024-03-28T06:11:21.295Z,9.74
2024-03-28T06:13:47.866Z,9.76
2024-03-28T06:16:16.952Z,9.77
2024-03-28T06:18:43.643Z,9.78
2024-03-28T06:21:10.422Z,9.76
2024-03-28T06:23:36.988Z,9.71
2024-03-28T06:26:04.549Z,9.71
2024-03-28T06:28:32.315Z,9.76
2024-03-28T06:31:00.590Z,9.79
2024-03-28T06:33:27.591Z,9.83
2024-03-28T06:35:54.412Z,9.86
2024-03-28T06:38:21.014Z,9.89
2024-03-28T06:40:48.068Z,9.92
2024-03-28T06:43:18.060Z,9.95
2024-03-28T06:45:44.643Z,9.87
2024-03-28T06:48:11.383Z,9.74
2024-03-28T06:50:37.924Z,9.67
2024-03-28T06:53:05.464Z,9.65
2024-03-28T06:55:32.172Z,9.67
2024-03-28T06:57:59.719Z,9.69
2024-03-28T07:00:26.393Z,9.67
2024-03-28T07:02:52.955Z,9.67
2024-03-28T07:05:19.539Z,9.69
2024-03-28T07:07:46.193Z,9.72
2024-03-28T07:10:12.745Z,9.77
2024-03-28T07:12:39.357Z,9.82
2024-03-28T07:15:06.718Z,9.87
2024-03-28T07:17:33.289Z,9.93
2024-03-28T07:19:59.850Z,9.99
2024-03-28T07:22:26.409Z,10.06
2024-03-28T07:24:53.030Z,10.13
2024-03-28T07:27:19.590Z,10.17
2024-03-28T07:29:46.236Z,10.21
2024-03-28T07:32:13.055Z,10.26
2024-03-28T07:34:39.672Z,10.30
2024-03-28T07:37:06.287Z,10.34
2024-03-28T07:39:33.052Z,10.36
2024-03-28T07:41:59.685Z,10.38
2024-03-28T07:44:26.577Z,10.41
2024-03-28T07:46:53.154Z,10.43
2024-03-28T07:49:20.145Z,10.45
2024-03-28T07:51:46.655Z,10.48
2024-03-28T07:54:13.334Z,10.52
2024-03-28T07:56:40.365Z,10.54
2024-03-28T07:59:08.403Z,10.58
2024-03-28T08:01:35.963Z,10.64
2024-03-28T08:04:03.087Z,10.69
2024-03-28T08:06:29.690Z,10.74
2024-03-28T08:08:56.269Z,10.80
2024-03-28T08:11:22.873Z,10.85
2024-03-28T08:13:50.341Z,10.89
2024-03-28T08:16:17.187Z,10.93
2024-03-28T08:18:43.744Z,10.98
2024-03-28T08:21:10.311Z,11.03
2024-03-28T08:23:36.894Z,11.06
2024-03-28T08:26:04.525Z,11.07
2024-03-28T08:28:31.204Z,11.08
2024-03-28T08:30:58.483Z,11.09
2024-03-28T08:33:25.416Z,11.09
2024-03-28T08:35:52.010Z,11.08
2024-03-28T08:38:18.961Z,11.06
2024-03-28T08:40:45.550Z,11.07
2024-03-28T08:43:12.124Z,11.06
2024-03-28T08:45:40.001Z,11.06
2024-03-28T08:48:09.262Z,11.06
2024-03-28T08:50:37.067Z,11.06
2024-03-28T08:53:03.678Z,11.06
2024-03-28T08:55:30.309Z,11.07
2024-03-28T08:57:57.093Z,11.09
2024-03-28T09:00:26.429Z,11.13
2024-03-28T09:02:56.107Z,11.18
2024-03-28T09:05:22.787Z,11.26
2024-03-28T09:07:50.520Z,11.36
2024-03-28T09:10:17.621Z,11.45
2024-03-28T09:12:48.820Z,11.52
2024-03-28T09:15:15.700Z,11.55
2024-03-28T09:17:42.288Z,11.56
2024-03-28T09:20:09.419Z,11.56
2024-03-28T09:22:38.346Z,11.58
2024-03-28T09:25:05.915Z,11.61
2024-03-28T09:27:32.483Z,11.66
2024-03-28T09:29:59.117Z,11.72
2024-03-28T09:32:26.107Z,11.75
2024-03-28T09:34:52.732Z,11.76
2024-03-28T09:37:19.814Z,11.77
2024-03-28T09:39:47.598Z,11.78
2024-03-28T09:42:20.587Z,11.80
2024-03-28T09:44:53.410Z,11.84
2024-03-28T09:47:22.314Z,11.86
2024-03-28T09:49:49.203Z,11.81
2024-03-28T09:52:15.829Z,11.76
2024-03-28T09:54:45.310Z,11.70
2024-03-28T09:57:12.047Z,11.65
2024-03-28T09:59:38.647Z,11.63
2024-03-28T10:02:18.697Z,11.59
2024-03-28T10:04:52.024Z,11.55
2024-03-28T10:07:19.307Z,11.54
2024-03-28T10:09:47.503Z,11.51
2024-03-28T10:12:15.063Z,11.48
2024-03-28T10:14:53.073Z,11.46
2024-03-28T10:17:19.951Z,11.46
2024-03-28T10:20:02.706Z,11.44
2024-03-28T10:22:32.967Z,11.44
2024-03-28T10:24:59.554Z,11.45
2024-03-28T10:27:27.474Z,11.44
2024-03-28T10:29:56.137Z,11.45
2024-03-28T10:32:23.580Z,11.47
2024-03-28T10:34:51.465Z,11.48
2024-03-28T10:37:23.524Z,11.49
2024-03-28T10:39:53.048Z,11.49
2024-03-28T10:42:19.646Z,11.49
2024-03-28T10:44:47.771Z,11.50
2024-03-28T10:47:17.081Z,11.53
2024-03-28T10:49:55.177Z,11.54
2024-03-28T10:52:26.426Z,11.51
2024-03-28T10:55:01.635Z,11.49
2024-03-28T10:57:29.305Z,11.50
2024-03-28T10:59:56.671Z,11.51
2024-03-28T11:02:23.454Z,11.50
2024-03-28T11:04:52.131Z,11.48
2024-03-28T11:07:18.928Z,11.48
2024-03-28T11:09:45.779Z,11.52
2024-03-28T11:12:12.746Z,11.54
2024-03-28T11:14:39.519Z,11.55
2024-03-28T11:17:06.287Z,11.51
2024-03-28T11:19:34.643Z,11.45
2024-03-28T11:22:03.112Z,11.42
2024-03-28T11:24:30.878Z,11.47
2024-03-28T11:26:59.566Z,11.51
2024-03-28T11:29:27.675Z,11.52
2024-03-28T11:31:58.745Z,11.44
2024-03-28T11:34:29.110Z,11.43
2024-03-28T11:36:58.294Z,11.43
2024-03-28T11:39:28.218Z,11.40
2024-03-28T11:41:55.059Z,11.39
2024-03-28T11:44:22.002Z,11.42
2024-03-28T11:46:48.725Z,11.46
2024-03-28T11:49:21.195Z,11.48
2024-03-28T11:51:47.952Z,11.50
2024-03-28T11:54:18.653Z,11.51
2024-03-28T11:56:45.780Z,11.54
2024-03-28T11:59:22.423Z,11.62
2024-03-28T12:01:49.983Z,11.72
2024-03-28T12:04:24.044Z,11.78
2024-03-28T12:06:50.925Z,11.80
2024-03-28T12:09:18.652Z,11.84
2024-03-28T12:11:45.268Z,11.85
2024-03-28T12:14:15.196Z,11.86
2024-03-28T12:16:47.011Z,11.86
2024-03-28T12:19:16.160Z,11.84
2024-03-28T12:21:43.733Z,11.82
2024-03-28T12:24:10.462Z,11.81
2024-03-28T12:26:37.163Z,11.81
2024-03-28T12:29:04.711Z,11.80
2024-03-28T12:31:31.382Z,11.79
2024-03-28T12:33:58.067Z,11.78
2024-03-28T12:36:32.298Z,11.75
2024-03-28T12:39:00.395Z,11.69
2024-03-28T12:41:27.604Z,11.69
2024-03-28T12:43:59.221Z,11.71
2024-03-28T12:46:26.008Z,11.77
2024-03-28T12:48:53.312Z,11.85
2024-03-28T12:51:20.136Z,11.88
2024-03-28T12:53:46.761Z,11.90
2024-03-28T12:56:14.470Z,11.92
2024-03-28T12:58:41.694Z,11.97
2024-03-28T13:01:08.270Z,12.04
2024-03-28T13:03:34.887Z,12.07
2024-03-28T13:06:01.472Z,12.08
2024-03-28T13:08:28.078Z,12.09
2024-03-28T13:10:55.439Z,12.13
2024-03-28T13:13:22.103Z,12.18
2024-03-28T13:15:48.774Z,12.19
2024-03-28T13:18:15.347Z,12.20
2024-03-28T13:20:41.949Z,12.24
2024-03-28T13:23:08.535Z,12.30
2024-03-28T13:25:38.278Z,12.37
2024-03-28T13:28:07.762Z,12.42
2024-03-28T13:30:34.407Z,12.43
2024-03-28T13:33:04.221Z,12.42
2024-03-28T13:35:30.788Z,12.42
2024-03-28T13:37:57.478Z,12.44
2024-03-28T13:40:24.110Z,12.48
2024-03-28T13:42:50.948Z,12.52
2024-03-28T13:45:17.481Z,12.55
2024-03-28T13:47:44.147Z,12.57
2024-03-28T13:50:11.227Z,12.60
2024-03-28T13:52:37.871Z,12.55
2024-03-28T13:55:04.895Z,12.49
2024-03-28T13:57:31.463Z,12.49
2024-03-28T13:59:58.102Z,12.47
2024-03-28T14:02:24.664Z,12.43
2024-03-28T14:04:52.026Z,12.37
2024-03-28T14:07:18.660Z,12.34
2024-03-28T14:09:47.590Z,12.31
2024-03-28T14:12:16.963Z,12.28
2024-03-28T14:14:43.490Z,12.24
2024-03-28T14:17:10.040Z,12.23
2024-03-28T14:19:36.645Z,12.21
2024-03-28T14:22:03.861Z,12.18
2024-03-28T14:24:30.739Z,12.13
2024-03-28T14:26:57.272Z,12.12
2024-03-28T14:29:23.820Z,12.13
2024-03-28T14:31:50.475Z,12.13
2024-03-28T14:34:18.062Z,12.11
2024-03-28T14:36:44.742Z,12.11
2024-03-28T14:39:11.585Z,12.13
2024-03-28T14:41:38.093Z,12.12
2024-03-28T14:44:04.891Z,12.13
2024-03-28T14:46:31.757Z,12.13
2024-03-28T14:48:58.490Z,12.13
2024-03-28T14:51:24.995Z,12.13
2024-03-28T14:53:54.350Z,12.13
2024-03-28T14:56:21.330Z,12.13
2024-03-28T14:58:48.212Z,12.15
2024-03-28T15:01:16.671Z,12.17
2024-03-28T15:03:45.523Z,12.15
2024-03-28T15:06:12.330Z,12.18
2024-03-28T15:08:38.920Z,12.21
2024-03-28T15:11:07.129Z,12.22
2024-03-28T15:13:33.699Z,12.25
2024-03-28T15:16:06.347Z,12.28
2024-03-28T15:18:32.952Z,12.28
2024-03-28T15:21:00.545Z,12.27
2024-03-28T15:23:27.127Z,12.26
2024-03-28T15:25:56.385Z,12.24
2024-03-28T15:28:23.448Z,12.22
2024-03-28T15:30:50.093Z,12.20
2024-03-28T15:33:16.778Z,12.16
2024-03-28T15:35:43.389Z,12.09
2024-03-28T15:38:09.898Z,12.02
2024-03-28T15:40:38.967Z,12.00
2024-03-28T15:43:06.093Z,12.00
2024-03-28T15:45:32.643Z,12.02
2024-03-28T15:47:59.874Z,12.04
2024-03-28T15:50:26.600Z,12.05
2024-03-28T15:52:53.319Z,12.05
2024-03-28T15:55:21.475Z,12.00
2024-03-28T15:57:48.886Z,11.92
2024-03-28T16:00:15.630Z,11.87
2024-03-28T16:02:42.312Z,11.83
2024-03-28T16:05:09.738Z,11.83
2024-03-28T16:07:36.732Z,11.85
2024-03-28T16:10:03.772Z,11.85
2024-03-28T16:12:30.700Z,11.86
2024-03-28T16:14:57.284Z,11.88
2024-03-28T16:17:23.832Z,11.87
2024-03-28T16:19:50.443Z,11.86
2024-03-28T16:22:17.025Z,11.87
2024-03-28T16:24:44.544Z,11.86
2024-03-28T16:27:11.424Z,11.82
2024-03-28T16:29:38.465Z,11.80
2024-03-28T16:32:06.058Z,11.81
2024-03-28T16:34:32.757Z,11.83
2024-03-28T16:36:59.474Z,11.87
2024-03-28T16:39:26.437Z,11.90
2024-03-28T16:41:54.703Z,11.94
2024-03-28T16:44:21.605Z,11.96
2024-03-28T16:46:48.142Z,11.96
2024-03-28T16:49:14.765Z,11.94
2024-03-28T16:51:41.691Z,11.89
2024-03-28T16:54:08.437Z,11.86
2024-03-28T16:56:35.424Z,11.84
2024-03-28T16:59:02.816Z,11.84
2024-03-28T17:01:29.365Z,11.81
2024-03-28T17:03:59.405Z,11.77
2024-03-28T17:06:26.023Z,11.74
2024-03-28T17:08:52.694Z,11.73
2024-03-28T17:11:19.250Z,11.75
2024-03-28T17:13:45.930Z,11.75
2024-03-28T17:16:12.641Z,11.75
2024-03-28T17:18:40.468Z,11.73
2024-03-28T17:21:07.858Z,11.71
2024-03-28T17:23:35.439Z,11.67
2024-03-28T17:26:11.067Z,11.63
2024-03-28T17:28:38.416Z,11.63
2024-03-28T17:31:10.767Z,11.61
2024-03-28T17:33:38.382Z,11.60
2024-03-28T17:36:06.897Z,11.62
2024-03-28T17:38:34.366Z,11.63
2024-03-28T17:41:01.107Z,11.64
2024-03-28T17:43:27.759Z,11.66
2024-03-28T17:45:54.294Z,11.64
2024-03-28T17:48:21.338Z,11.61
2024-03-28T17:50:47.974Z,11.57
2024-03-28T17:53:15.003Z,11.53
2024-03-28T17:55:42.447Z,11.48
2024-03-28T17:58:09.714Z,11.47
2024-03-28T18:00:39.376Z,11.45
2024-03-28T18:03:06.523Z,11.41
2024-03-28T18:05:33.377Z,11.40
2024-03-28T18:08:00.303Z,11.40
2024-03-28T18:10:26.957Z,11.41
2024-03-28T18:12:53.557Z,11.43
2024-03-28T18:15:20.203Z,11.41
2024-03-28T18:17:46.831Z,11.39
2024-03-28T18:20:13.477Z,11.34
2024-03-28T18:22:40.849Z,11.31
2024-03-28T18:25:07.656Z,11.27
2024-03-28T18:27:34.562Z,11.24
2024-03-28T18:30:01.304Z,11.26
2024-03-28T18:32:27.856Z,11.29
2024-03-28T18:34:54.417Z,11.34
2024-03-28T18:37:21.005Z,11.38
2024-03-28T18:39:47.582Z,11.40
2024-03-28T18:42:14.330Z,11.44
2024-03-28T18:44:40.920Z,11.46
2024-03-28T18:47:07.458Z,11.47
2024-03-28T18:49:34.101Z,11.47
2024-03-28T18:52:01.126Z,11.46
2024-03-28T18:54:28.337Z,11.43
2024-03-28T18:56:54.904Z,11.40
2024-03-28T18:59:21.547Z,11.36
2024-03-28T19:01:48.599Z,11.32
2024-03-28T19:04:15.804Z,11.31
2024-03-28T19:06:42.415Z,11.31
2024-03-28T19:09:09.487Z,11.32
2024-03-28T19:11:36.412Z,11.32
2024-03-28T19:14:04.938Z,11.31
2024-03-28T19:16:31.486Z,11.27
2024-03-28T19:18:58.201Z,11.24
2024-03-28T19:21:25.997Z,11.22
2024-03-28T19:23:52.627Z,11.19
2024-03-28T19:26:19.195Z,11.13
2024-03-28T19:28:45.863Z,11.08
2024-03-28T19:31:12.444Z,11.02
2024-03-28T19:33:39.221Z,10.97
2024-03-28T19:36:06.002Z,10.90
2024-03-28T19:38:33.797Z,10.84
2024-03-28T19:41:00.383Z,10.80
2024-03-28T19:43:28.819Z,10.77
2024-03-28T19:45:55.351Z,10.76
2024-03-28T19:48:23.319Z,10.76
2024-03-28T19:50:49.886Z,10.75
2024-03-28T19:53:16.484Z,10.74
2024-03-28T19:55:43.202Z,10.69
2024-03-28T19:58:09.751Z,10.68
2024-03-28T20:00:36.323Z,10.66
2024-03-28T20:03:02.951Z,10.66
2024-03-28T20:05:29.552Z,10.64
2024-03-28T20:07:59.400Z,10.61
2024-03-28T20:10:26.034Z,10.51
2024-03-28T20:12:52.561Z,10.46
2024-03-28T20:15:19.291Z,10.45
2024-03-28T20:17:46.639Z,10.46
2024-03-28T20:20:13.310Z,10.45
2024-03-28T20:22:40.442Z,10.39
2024-03-28T20:25:07.492Z,10.36
2024-03-28T20:27:34.158Z,10.37
2024-03-28T20:30:00.965Z,10.37
2024-03-28T20:32:28.884Z,10.31
2024-03-28T20:34:58.433Z,10.27
2024-03-28T20:37:25.209Z,10.26
2024-03-28T20:39:52.306Z,10.27
2024-03-28T20:42:18.971Z,10.27
2024-03-28T20:44:45.636Z,10.26
2024-03-28T20:47:17.395Z,10.27
2024-03-28T20:49:44.422Z,10.28
2024-03-28T20:52:11.018Z,10.26
2024-03-28T20:54:38.497Z,10.27
2024-03-28T20:57:05.430Z,10.27
2024-03-28T20:59:32.224Z,10.26
2024-03-28T21:01:58.958Z,10.23
2024-03-28T21:04:28.771Z,10.22
2024-03-28T21:06:58.562Z,10.22
2024-03-28T21:09:47.046Z,10.21
2024-03-28T21:12:17.251Z,10.20
2024-03-28T21:14:49.391Z,10.20
2024-03-28T21:17:16.858Z,10.20
2024-03-28T21:19:45.289Z,10.21
2024-03-28T21:22:13.028Z,10.17
2024-03-28T21:24:40.678Z,10.05
2024-03-28T21:27:08.713Z,9.92
2024-03-28T21:29:36.268Z,9.89
2024-03-28T21:32:04.608Z,9.90
2024-03-28T21:34:32.617Z,9.91
2024-03-28T21:36:59.806Z,9.79
2024-03-28T21:39:26.498Z,9.74
2024-03-28T21:41:53.101Z,9.73
2024-03-28T21:44:19.860Z,9.71
2024-03-28T21:46:47.470Z,9.72
2024-03-28T21:49:14.021Z,9.75
2024-03-28T21:51:40.582Z,9.78
2024-03-28T21:54:07.174Z,9.79
2024-03-28T21:56:34.081Z,9.81
2024-03-28T21:59:19.688Z,9.82
2024-03-28T22:01:46.261Z,9.77
2024-03-28T22:04:12.910Z,9.71
2024-03-28T22:06:40.312Z,9.72
2024-03-28T22:09:07.213Z,9.73
2024-03-28T22:11:33.988Z,9.73
2024-03-28T22:14:00.556Z,9.66
2024-03-28T22:16:27.082Z,9.59
2024-03-28T22:18:54.362Z,9.49
2024-03-28T22:21:21.793Z,9.44
2024-03-28T22:23:48.336Z,9.38
2024-03-28T22:26:15.101Z,9.38
2024-03-28T22:28:41.703Z,9.41
2024-03-28T22:31:09.033Z,9.42
2024-03-28T22:33:35.651Z,9.45
2024-03-28T22:36:02.154Z,9.49
2024-03-28T22:38:28.947Z,9.53
2024-03-28T22:40:56.739Z,9.55
2024-03-28T22:43:25.154Z,9.57
2024-03-28T22:46:00.843Z,9.59
2024-03-28T22:48:27.449Z,9.60
2024-03-28T22:50:54.750Z,9.63
2024-03-28T22:53:22.008Z,9.63
2024-03-28T22:55:58.809Z,9.63
2024-03-28T22:58:25.405Z,9.52
2024-03-28T23:00:53.473Z,9.46
2024-03-28T23:03:20.169Z,9.45
2024-03-28T23:05:48.529Z,9.43
2024-03-28T23:08:15.574Z,9.31
2024-03-28T23:10:42.675Z,9.25
2024-03-28T23:13:09.223Z,9.26
2024-03-28T23:15:35.791Z,9.27
2024-03-28T23:18:02.331Z,9.19
2024-03-28T23:20:29.018Z,9.16
2024-03-28T23:22:57.981Z,9.17
2024-03-28T23:25:24.711Z,9.20
2024-03-28T23:27:51.354Z,9.23
2024-03-28T23:30:17.959Z,9.24
2024-03-28T23:32:44.574Z,9.26
2024-03-28T23:35:11.234Z,9.27
2024-03-28T23:37:37.877Z,9.28
2024-03-28T23:40:05.185Z,9.28
2024-03-28T23:42:31.960Z,9.28
2024-03-28T23:44:58.541Z,9.26
2024-03-28T23:47:25.121Z,9.26
2024-03-28T23:49:52.183Z,9.26
2024-03-28T23:52:19.931Z,9.23
2024-03-28T23:54:47.696Z,9.20
2024-03-28T23:57:14.298Z,9.15
2024-03-28T23:59:40.865Z,9.14
